createdAt,value
2019-04-16T00:01:30.686Z,70.08
2019-04-16T00:04:03.753Z,70.29
2019-04-16T00:06:53.459Z,70.21
2019-04-16T00:09:29.843Z,70.09
2019-04-16T00:12:05.683Z,70.36
2019-04-16T00:14:36.692Z,70.51
2019-04-16T00:17:03.849Z,70.67
2019-04-16T00:19:30.943Z,70.75
2019-04-16T00:22:20.639Z,70.88
2019-04-16T00:24:50.895Z,71.16
2019-04-16T00:27:17.947Z,71.26
2019-04-16T00:29:45.030Z,71.58
2019-04-16T00:32:30.603Z,71.66
2019-04-16T00:34:57.681Z,71.72
2019-04-16T00:37:24.757Z,71.81
2019-04-16T00:39:55.556Z,71.98
2019-04-16T00:42:20.807Z,72.08
2019-04-16T00:44:47.918Z,72.20
2019-04-16T00:47:15.195Z,72.33
2019-04-16T00:49:42.259Z,72.15
2019-04-16T00:52:09.353Z,72.18
2019-04-16T00:54:36.395Z,72.32
2019-04-16T00:57:03.437Z,72.59
2019-04-16T00:59:30.521Z,72.84
2019-04-16T01:01:57.611Z,72.90
2019-04-16T01:04:25.038Z,72.99
2019-04-16T01:06:52.144Z,73.16
2019-04-16T01:09:19.200Z,73.21
2019-04-16T01:11:48.892Z,73.37
2019-04-16T01:14:15.228Z,73.43
2019-04-16T01:16:42.288Z,73.59
2019-04-16T01:19:10.762Z,73.71
2019-04-16T01:21:38.286Z,73.52
2019-04-16T01:24:05.525Z,73.78
2019-04-16T01:26:32.579Z,74.02
2019-04-16T01:29:05.467Z,74.18
2019-04-16T01:31:54.915Z,74.59
2019-04-16T01:34:53.614Z,74.72
2019-04-16T01:37:56.559Z,74.88
2019-04-16T01:40:26.443Z,74.84
2019-04-16T01:42:54.602Z,75.00
2019-04-16T01:45:22.307Z,75.31
2019-04-16T01:47:49.401Z,75.56
2019-04-16T01:50:16.507Z,75.98
2019-04-16T01:52:49.457Z,76.15
2019-04-16T01:55:15.537Z,76.15
2019-04-16T01:57:42.657Z,76.38
2019-04-16T02:00:10.134Z,76.33
2019-04-16T02:02:37.253Z,76.32
2019-04-16T02:05:04.878Z,75.91
2019-04-16T02:07:31.939Z,75.82
2019-04-16T02:09:58.999Z,75.81
2019-04-16T02:12:26.062Z,75.83
2019-04-16T02:14:53.107Z,75.87
2019-04-16T02:17:20.154Z,75.87
2019-04-16T02:19:47.221Z,75.76
2019-04-16T02:22:14.278Z,75.71
2019-04-16T02:24:41.344Z,75.50
2019-04-16T02:27:08.572Z,75.52
2019-04-16T02:29:35.571Z,75.62
2019-04-16T02:32:02.613Z,75.60
2019-04-16T02:34:29.690Z,75.77
2019-04-16T02:37:00.890Z,75.88
2019-04-16T02:39:46.651Z,76.07
2019-04-16T02:41:58.149Z,76.10
2019-04-16T02:44:23.621Z,76.30
2019-04-16T02:46:50.696Z,76.24
2019-04-16T02:49:22.991Z,75.87
2019-04-16T02:52:18.684Z,75.86
2019-04-16T02:54:50.287Z,75.86
2019-04-16T02:57:27.964Z,75.83
2019-04-16T02:59:56.464Z,75.85
2019-04-16T03:02:57.992Z,75.89
2019-04-16T03:05:29.813Z,76.07
2019-04-16T03:07:57.157Z,76.17
2019-04-16T03:10:24.311Z,76.25
2019-04-16T03:12:53.740Z,76.30
2019-04-16T03:15:40.393Z,76.36
2019-04-16T03:18:07.562Z,76.34
2019-04-16T03:20:34.629Z,76.29
2019-04-16T03:23:05.164Z,76.44
2019-04-16T03:25:30.641Z,76.72
2019-04-16T03:27:57.724Z,76.84
2019-04-16T03:30:24.774Z,76.80
2019-04-16T03:32:51.975Z,77.12
2019-04-16T03:35:19.484Z,77.17
2019-04-16T03:37:46.894Z,77.34
2019-04-16T03:40:17.762Z,77.56
2019-04-16T03:42:42.946Z,77.85
2019-04-16T03:45:12.053Z,77.97
2019-04-16T03:48:15.566Z,78.15
2019-04-16T03:50:42.625Z,78.23
2019-04-16T03:53:09.665Z,78.35
2019-04-16T03:55:36.755Z,78.66
2019-04-16T03:58:06.096Z,78.96
2019-04-16T04:00:33.227Z,79.47
2019-04-16T04:03:00.389Z,79.60
2019-04-16T04:05:27.454Z,79.72
2019-04-16T04:07:55.495Z,80.41
2019-04-16T04:10:30.459Z,80.62
2019-04-16T04:13:17.512Z,80.73
2019-04-16T04:15:40.812Z,80.74
2019-04-16T04:18:11.674Z,80.70
2019-04-16T04:20:37.100Z,80.75
2019-04-16T04:23:04.537Z,80.71
2019-04-16T04:25:36.072Z,80.80
2019-04-16T04:28:00.571Z,80.76
2019-04-16T04:30:28.860Z,80.93
2019-04-16T04:32:56.574Z,80.99
2019-04-16T04:35:23.715Z,81.05
2019-04-16T04:37:50.710Z,81.15
2019-04-16T04:40:18.071Z,81.46
2019-04-16T04:42:45.225Z,81.74
2019-04-16T04:45:12.315Z,81.58
2019-04-16T04:47:39.373Z,81.97
2019-04-16T04:50:06.621Z,81.86
2019-04-16T04:52:46.801Z,81.81
2019-04-16T04:55:15.166Z,81.74
2019-04-16T04:57:42.247Z,81.76
2019-04-16T05:00:09.779Z,81.82
2019-04-16T05:02:36.834Z,81.88
2019-04-16T05:05:26.310Z,82.08
2019-04-16T05:07:53.400Z,82.08
2019-04-16T05:10:42.854Z,82.14
2019-04-16T05:13:07.402Z,82.13
2019-04-16T05:15:34.457Z,81.78
2019-04-16T05:18:01.571Z,81.72
2019-04-16T05:20:30.007Z,81.64
2019-04-16T05:22:58.067Z,81.33
2019-04-16T05:25:25.282Z,81.32
2019-04-16T05:27:52.330Z,81.30
2019-04-16T05:30:20.858Z,81.38
2019-04-16T05:32:48.395Z,81.32
2019-04-16T05:35:15.432Z,81.09
2019-04-16T05:37:42.841Z,80.84
2019-04-16T05:40:10.980Z,80.75
2019-04-16T05:42:38.070Z,80.71
2019-04-16T05:45:06.430Z,80.60
2019-04-16T05:47:33.564Z,80.23
2019-04-16T05:50:00.611Z,79.73
2019-04-16T05:52:39.883Z,79.39
2019-04-16T05:55:26.871Z,79.17
2019-04-16T05:57:57.909Z,79.01
2019-04-16T06:00:42.592Z,78.58
2019-04-16T06:03:09.689Z,78.24
2019-04-16T06:05:36.844Z,78.26
2019-04-16T06:08:10.770Z,77.98
2019-04-16T06:10:37.965Z,77.59
2019-04-16T06:13:24.644Z,77.41
2019-04-16T06:16:24.133Z,77.25
2019-04-16T06:19:11.358Z,77.04
2019-04-16T06:22:00.131Z,76.70
2019-04-16T06:25:09.209Z,76.36
2019-04-16T06:27:52.307Z,76.36
2019-04-16T06:30:34.818Z,76.00
2019-04-16T06:33:27.292Z,75.88
2019-04-16T06:36:00.150Z,75.84
2019-04-16T06:38:49.117Z,75.42
2019-04-16T06:41:47.835Z,75.00
2019-04-16T06:44:17.506Z,74.46
2019-04-16T06:46:51.220Z,74.31
2019-04-16T06:49:39.425Z,74.46
2019-04-16T06:52:20.416Z,74.42
2019-04-16T06:55:03.698Z,74.24
2019-04-16T06:57:43.077Z,73.77
2019-04-16T07:00:42.536Z,73.52
2019-04-16T07:03:27.857Z,73.55
2019-04-16T07:06:20.259Z,73.27
2019-04-16T07:08:59.702Z,72.83
2019-04-16T07:11:26.833Z,71.56
2019-04-16T07:13:53.938Z,71.35
2019-04-16T07:16:21.023Z,71.70
2019-04-16T07:18:48.103Z,70.95
2019-04-16T07:21:17.598Z,70.44
2019-04-16T07:23:46.462Z,70.19
2019-04-16T07:26:14.808Z,69.64
2019-04-16T07:28:47.300Z,69.02
2019-04-16T07:31:32.801Z,67.96
2019-04-16T07:34:08.671Z,66.83
2019-04-16T07:36:48.387Z,66.65
2019-04-16T07:39:38.070Z,66.71
2019-04-16T07:42:27.782Z,65.74
2019-04-16T07:45:04.960Z,64.20
2019-04-16T07:47:38.577Z,64.07
2019-04-16T07:50:34.302Z,63.48
2019-04-16T07:53:19.466Z,63.48
2019-04-16T07:55:49.793Z,63.98
2019-04-16T07:58:16.871Z,63.50
2019-04-16T08:00:44.063Z,62.68
2019-04-16T08:03:11.126Z,62.15
2019-04-16T08:05:41.195Z,61.84
2019-04-16T08:08:07.222Z,61.23
2019-04-16T08:10:34.307Z,61.53
2019-04-16T08:13:14.253Z,61.84
2019-04-16T08:15:41.404Z,60.89
2019-04-16T08:18:08.527Z,60.19
2019-04-16T08:20:35.580Z,60.12
2019-04-16T08:23:12.743Z,59.86
2019-04-16T08:25:39.846Z,60.01
2019-04-16T08:28:07.703Z,59.97
2019-04-16T08:30:39.194Z,59.56
2019-04-16T08:33:03.864Z,58.97
2019-04-16T08:35:30.926Z,58.12
2019-04-16T08:37:58.895Z,58.25
2019-04-16T08:40:26.113Z,58.31
2019-04-16T08:42:56.978Z,58.45
2019-04-16T08:45:22.088Z,57.88
2019-04-16T08:47:49.149Z,57.13
2019-04-16T08:50:18.167Z,56.25
2019-04-16T08:52:45.216Z,54.94
2019-04-16T08:55:12.323Z,54.35
2019-04-16T08:57:39.375Z,55.05
2019-04-16T09:00:14.349Z,55.81
2019-04-16T09:02:38.505Z,56.33
2019-04-16T09:05:08.217Z,56.24
2019-04-16T09:07:40.844Z,55.64
2019-04-16T09:10:18.220Z,54.88
2019-04-16T09:12:44.908Z,54.07
2019-04-16T09:15:11.309Z,54.19
2019-04-16T09:17:40.695Z,54.40
2019-04-16T09:20:09.586Z,53.99
2019-04-16T09:22:48.360Z,53.67
2019-04-16T09:25:14.081Z,53.80
2019-04-16T09:27:43.495Z,53.31
2019-04-16T09:30:29.139Z,53.14
2019-04-16T09:33:21.895Z,52.49
2019-04-16T09:35:59.740Z,52.57
2019-04-16T09:38:45.243Z,52.38
2019-04-16T09:41:48.529Z,52.42
2019-04-16T09:44:15.647Z,52.14
2019-04-16T09:46:51.901Z,50.27
2019-04-16T09:49:11.600Z,50.82
2019-04-16T09:51:38.703Z,51.09
2019-04-16T09:54:05.796Z,50.63
2019-04-16T09:56:32.834Z,50.08
2019-04-16T09:59:20.775Z,50.21
2019-04-16T10:02:02.598Z,49.86
2019-04-16T10:04:29.700Z,49.23
2019-04-16T10:06:56.826Z,49.86
2019-04-16T10:09:23.956Z,50.56
2019-04-16T10:11:51.027Z,50.45
2019-04-16T10:16:56.694Z,49.04
2019-04-16T10:19:23.863Z,48.23
2019-04-16T10:21:54.286Z,48.23
2019-04-16T10:24:46.518Z,48.80
2019-04-16T10:27:25.416Z,47.73
2019-04-16T10:29:53.918Z,47.12
2019-04-16T10:32:21.072Z,46.61
2019-04-16T10:34:48.431Z,45.87
2019-04-16T10:37:15.541Z,45.81
2019-04-16T10:40:11.484Z,45.21
2019-04-16T10:42:56.947Z,44.43
2019-04-16T10:45:46.629Z,44.83
2019-04-16T10:48:26.621Z,43.84
2019-04-16T10:51:04.089Z,44.37
2019-04-16T10:53:46.861Z,44.08
2019-04-16T10:56:46.279Z,43.51
2019-04-16T10:59:31.556Z,43.94
2019-04-16T11:02:18.280Z,43.13
2019-04-16T11:04:53.229Z,41.85
2019-04-16T11:07:23.240Z,41.34
2019-04-16T11:09:50.304Z,39.89
2019-04-16T11:12:19.763Z,39.69
2019-04-16T11:14:46.513Z,39.97
2019-04-16T11:17:22.202Z,39.22
2019-04-16T11:19:52.659Z,39.23
2019-04-16T11:22:18.215Z,38.37
2019-04-16T11:24:51.458Z,37.33
2019-04-16T11:27:24.348Z,36.30
2019-04-16T11:29:51.436Z,36.19
2019-04-16T11:32:21.566Z,35.81
2019-04-16T11:34:48.639Z,34.36
2019-04-16T11:37:15.670Z,33.96
2019-04-16T11:39:42.829Z,33.58
2019-04-16T11:42:09.954Z,33.86
2019-04-16T11:44:36.998Z,33.37
2019-04-16T11:47:10.108Z,32.88
2019-04-16T11:49:37.187Z,32.01
2019-04-16T11:52:04.336Z,32.14
2019-04-16T11:54:37.590Z,31.72
2019-04-16T11:57:05.882Z,31.35
2019-04-16T11:59:32.913Z,31.54
2019-04-16T12:02:09.432Z,31.62
2019-04-16T12:04:57.270Z,31.16
2019-04-16T12:07:41.191Z,30.39
2019-04-16T12:10:28.187Z,30.81
2019-04-16T12:13:27.897Z,28.67
2019-04-16T12:16:03.638Z,29.23
2019-04-16T12:18:37.975Z,28.89
2019-04-16T12:21:15.839Z,28.80
2019-04-16T12:23:59.343Z,29.24
2019-04-16T12:26:39.260Z,28.53
2019-04-16T12:29:23.230Z,27.58
2019-04-16T12:32:10.051Z,27.82
2019-04-16T12:34:55.008Z,27.88
2019-04-16T12:37:40.673Z,28.25
2019-04-16T12:40:19.013Z,26.93
2019-04-16T12:43:01.574Z,26.87
2019-04-16T12:45:37.779Z,26.93
2019-04-16T12:48:14.410Z,26.80
2019-04-16T12:50:59.926Z,26.18
2019-04-16T12:54:04.886Z,26.93
2019-04-16T12:56:54.470Z,27.02
2019-04-16T12:59:54.690Z,27.03
2019-04-16T13:02:31.671Z,27.59
2019-04-16T13:05:33.514Z,27.28
2019-04-16T13:08:18.861Z,27.50
2019-04-16T13:11:23.569Z,28.22
2019-04-16T13:14:13.074Z,27.47
2019-04-16T13:16:59.903Z,27.65
2019-04-16T13:19:59.299Z,27.96
2019-04-16T13:22:30.316Z,27.34
2019-04-16T13:25:13.097Z,26.61
2019-04-16T13:27:40.179Z,27.25
2019-04-16T13:30:08.332Z,27.09
2019-04-16T13:32:35.715Z,26.89
2019-04-16T13:35:06.153Z,26.98
2019-04-16T13:37:36.995Z,27.37
2019-04-16T13:40:13.130Z,27.90
2019-04-16T13:42:40.587Z,28.46
2019-04-16T13:45:45.105Z,29.28
2019-04-16T13:48:27.503Z,28.87
2019-04-16T13:50:58.055Z,30.80
2019-04-16T13:53:42.420Z,31.43
2019-04-16T13:56:21.883Z,31.97
2019-04-16T13:59:12.564Z,31.50
2019-04-16T14:01:53.515Z,32.18
2019-04-16T14:04:20.666Z,32.05
2019-04-16T14:06:53.266Z,31.80
2019-04-16T14:09:22.367Z,31.57
2019-04-16T14:11:51.262Z,31.75
2019-04-16T14:14:22.485Z,31.94
2019-04-16T14:16:48.009Z,31.72
2019-04-16T14:19:15.109Z,32.27
2019-04-16T14:21:42.260Z,32.35
2019-04-16T14:24:11.927Z,32.15
2019-04-16T14:26:38.533Z,32.24
2019-04-16T14:29:07.874Z,32.03
2019-04-16T14:31:35.270Z,32.52
2019-04-16T14:34:29.812Z,32.82
2019-04-16T14:36:57.631Z,33.33
2019-04-16T14:39:32.250Z,33.22
2019-04-16T14:41:59.568Z,33.18
2019-04-16T14:44:28.762Z,33.69
2019-04-16T14:47:00.555Z,33.76
2019-04-16T14:49:27.061Z,34.46
2019-04-16T14:51:54.110Z,34.46
2019-04-16T14:54:45.125Z,34.54
2019-04-16T14:57:12.864Z,34.48
2019-04-16T14:59:51.356Z,34.45
2019-04-16T15:02:40.817Z,34.53
2019-04-16T15:05:33.384Z,34.91
2019-04-16T15:08:18.870Z,35.08
2019-04-16T15:11:20.884Z,34.80
2019-04-16T15:13:53.204Z,34.81
2019-04-16T15:16:38.809Z,35.17
2019-04-16T15:19:24.207Z,34.87
2019-04-16T15:22:20.043Z,34.78
2019-04-16T15:24:56.598Z,35.39
2019-04-16T15:27:49.193Z,34.67
2019-04-16T15:30:33.044Z,35.10
2019-04-16T15:33:28.854Z,35.36
2019-04-16T15:35:59.732Z,35.83
2019-04-16T15:38:49.460Z,36.21
2019-04-16T15:41:24.245Z,36.36
2019-04-16T15:44:26.049Z,37.31
2019-04-16T15:47:18.665Z,38.20
2019-04-16T15:49:55.735Z,38.64
2019-04-16T15:52:38.853Z,39.01
2019-04-16T15:55:24.673Z,39.30
2019-04-16T15:58:04.638Z,39.81
2019-04-16T16:00:50.150Z,39.79
2019-04-16T16:03:50.071Z,39.58
2019-04-16T16:06:20.985Z,39.53
2019-04-16T16:09:08.842Z,40.46
2019-04-16T16:11:51.121Z,39.95
2019-04-16T16:14:18.258Z,40.57
2019-04-16T16:16:47.836Z,40.80
2019-04-16T16:19:14.532Z,41.29
2019-04-16T16:21:41.582Z,41.31
2019-04-16T16:24:08.658Z,41.27
2019-04-16T16:26:35.781Z,41.65
2019-04-16T16:29:03.047Z,41.41
2019-04-16T16:31:35.010Z,42.22
2019-04-16T16:33:59.094Z,42.79
2019-04-16T16:36:26.151Z,42.64
2019-04-16T16:38:53.236Z,42.55
2019-04-16T16:41:20.468Z,42.89
2019-04-16T16:43:47.544Z,43.43
2019-04-16T16:46:25.994Z,44.29
2019-04-16T16:48:53.208Z,44.25
2019-04-16T16:51:22.986Z,44.54
2019-04-16T16:54:00.313Z,44.80
2019-04-16T16:56:46.510Z,44.49
2019-04-16T16:59:37.418Z,44.81
2019-04-16T17:02:17.946Z,45.12
2019-04-16T17:04:46.898Z,45.83
2019-04-16T17:07:17.533Z,46.08
2019-04-16T17:09:43.122Z,46.39
2019-04-16T17:12:10.215Z,47.01
2019-04-16T17:14:38.063Z,47.11
2019-04-16T17:17:14.250Z,47.29
2019-04-16T17:19:35.713Z,47.02
2019-04-16T17:22:03.094Z,46.93
2019-04-16T17:24:30.253Z,47.35
2019-04-16T17:26:58.486Z,48.33
2019-04-16T17:29:25.601Z,49.03
2019-04-16T17:31:53.547Z,49.12
2019-04-16T17:34:20.931Z,49.92
2019-04-16T17:36:48.105Z,49.94
2019-04-16T17:39:23.320Z,50.31
2019-04-16T17:42:04.580Z,50.73
2019-04-16T17:44:49.679Z,51.40
2019-04-16T17:47:31.930Z,52.07
2019-04-16T17:50:04.519Z,52.74
2019-04-16T17:52:40.715Z,53.43
2019-04-16T17:55:26.214Z,53.88
2019-04-16T17:58:15.889Z,54.57
2019-04-16T18:01:26.863Z,55.71
2019-04-16T18:04:00.276Z,55.91
2019-04-16T18:10:26.663Z,56.88
2019-04-16T18:13:25.389Z,56.38
2019-04-16T18:16:12.214Z,56.64
2019-04-16T18:18:50.796Z,56.93
2019-04-16T18:21:55.911Z,57.45
2019-04-16T18:24:45.471Z,57.92
2019-04-16T18:27:38.000Z,58.29
2019-04-16T18:30:43.389Z,58.91
2019-04-16T18:33:39.300Z,59.46
2019-04-16T18:36:34.859Z,59.84
2019-04-16T18:39:37.420Z,60.15
2019-04-16T18:42:11.049Z,61.11
2019-04-16T18:45:03.658Z,61.66
2019-04-16T18:47:33.577Z,62.17
2019-04-16T18:50:03.187Z,62.66
2019-04-16T18:52:30.314Z,62.85
2019-04-16T18:54:57.490Z,62.99
2019-04-16T18:57:24.632Z,62.88
2019-04-16T18:59:54.893Z,63.33
2019-04-16T19:02:24.139Z,63.59
2019-04-16T19:04:51.306Z,63.71
2019-04-16T19:07:18.387Z,64.10
2019-04-16T19:09:45.597Z,64.46
2019-04-16T19:12:53.859Z,64.63
2019-04-16T19:15:21.417Z,65.23
2019-04-16T19:17:48.511Z,65.68
2019-04-16T19:20:17.834Z,65.78
2019-04-16T19:22:49.803Z,65.59
2019-04-16T19:25:15.745Z,65.97
2019-04-16T19:27:42.864Z,66.12
2019-04-16T19:30:10.469Z,66.01
2019-04-16T19:32:37.548Z,66.31
2019-04-16T19:35:10.019Z,66.81
2019-04-16T19:37:34.046Z,67.35
2019-04-16T19:40:01.392Z,68.09
2019-04-16T19:42:29.910Z,68.64
2019-04-16T19:44:57.240Z,69.02
2019-04-16T19:47:26.551Z,69.43
2019-04-16T19:49:55.196Z,70.15
2019-04-16T19:52:29.828Z,70.63
2019-04-16T19:54:56.920Z,71.00
2019-04-16T19:57:24.508Z,71.13
2019-04-16T19:59:51.851Z,71.67
2019-04-16T20:02:19.964Z,72.06
2019-04-16T20:04:50.584Z,72.28
2019-04-16T20:07:16.070Z,72.74
2019-04-16T20:09:43.411Z,73.50
2019-04-16T20:12:10.559Z,74.02
2019-04-16T20:14:37.658Z,74.89
2019-04-16T20:17:05.781Z,74.84
2019-04-16T20:19:35.926Z,75.39
2019-04-16T20:22:03.198Z,75.75
2019-04-16T20:24:32.336Z,76.51
2019-04-16T20:27:04.939Z,77.15
2019-04-16T20:29:28.714Z,77.49
2019-04-16T20:31:56.129Z,78.28
2019-04-16T20:34:23.198Z,78.77
2019-04-16T20:36:52.177Z,79.53
2019-04-16T20:39:19.480Z,79.86
2019-04-16T20:41:52.852Z,80.20
2019-04-16T20:44:18.044Z,80.30
2019-04-16T20:46:45.337Z,80.12
2019-04-16T20:49:16.651Z,80.51
2019-04-16T20:51:42.679Z,80.75
2019-04-16T20:54:13.123Z,80.86
2019-04-16T20:56:40.957Z,81.10
2019-04-16T20:59:15.639Z,81.12
2019-04-16T21:01:42.709Z,81.48
2019-04-16T21:04:09.861Z,81.76
2019-04-16T21:06:40.751Z,82.02
2019-04-16T21:09:06.792Z,82.86
2019-04-16T21:11:34.010Z,83.27
2019-04-16T21:14:01.971Z,83.55
2019-04-16T21:16:47.780Z,84.00
2019-04-16T21:19:22.824Z,84.11
2019-04-16T21:21:45.166Z,84.39
2019-04-16T21:24:13.701Z,84.68
2019-04-16T21:26:41.060Z,85.42
2019-04-16T21:29:21.574Z,85.66
2019-04-16T21:31:52.805Z,85.86
2019-04-16T21:34:33.049Z,86.64
2019-04-16T21:37:18.664Z,87.44
2019-04-16T21:39:51.166Z,88.94
2019-04-16T21:42:18.206Z,89.64
2019-04-16T21:44:46.469Z,90.22
2019-04-16T21:47:13.655Z,91.14
2019-04-16T21:49:45.073Z,91.67
2019-04-16T21:52:10.851Z,93.30
2019-04-16T21:54:38.284Z,93.31
2019-04-16T21:57:05.368Z,93.56
2019-04-16T21:59:32.637Z,93.59
2019-04-16T22:02:00.674Z,94.26
2019-04-16T22:04:27.756Z,94.83
2019-04-16T22:06:54.970Z,94.77
2019-04-16T22:09:22.039Z,95.04
2019-04-16T22:11:49.173Z,95.50
2019-04-16T22:14:16.412Z,96.23
2019-04-16T22:16:43.454Z,96.48
2019-04-16T22:19:11.130Z,97.32
2019-04-16T22:21:42.434Z,98.18
2019-04-16T22:24:08.575Z,98.61
2019-04-16T22:26:35.719Z,98.84
2019-04-16T22:29:03.247Z,99.42
2019-04-16T22:31:30.576Z,99.72
2019-04-16T22:34:05.712Z,99.62
2019-04-16T22:36:32.972Z,99.62
2019-04-16T22:39:19.616Z,99.88
2019-04-16T22:42:12.343Z,100.00
2019-04-16T22:44:57.589Z,100.00
2019-04-16T22:47:27.184Z,100.00
2019-04-16T22:49:56.749Z,100.00
2019-04-16T22:52:23.205Z,100.00
2019-04-16T22:54:58.619Z,100.00
2019-04-16T22:57:25.748Z,100.00
2019-04-16T22:59:52.879Z,100.00
2019-04-16T23:02:24.705Z,100.00
2019-04-16T23:04:51.799Z,100.00
2019-04-16T23:07:52.307Z,100.00
2019-04-16T23:10:20.984Z,100.00
2019-04-16T23:12:48.436Z,100.00
2019-04-16T23:15:15.498Z,100.00
2019-04-16T23:17:42.793Z,100.00
2019-04-16T23:20:11.838Z,100.00
2019-04-16T23:22:39.400Z,100.00
2019-04-16T23:25:06.546Z,100.00
2019-04-16T23:27:37.212Z,100.00
2019-04-16T23:30:03.890Z,100.00
2019-04-16T23:32:31.044Z,100.00
2019-04-16T23:34:58.189Z,100.00
2019-04-16T23:37:25.252Z,100.00
2019-04-16T23:39:52.303Z,100.00
2019-04-16T23:42:19.831Z,100.00
2019-04-16T23:45:04.458Z,100.00
2019-04-16T23:47:46.487Z,100.00
2019-04-16T23:50:44.779Z,100.00
2019-04-16T23:53:09.526Z,100.00
2019-04-16T23:56:05.517Z,100.00
2019-04-16T23:59:04.808Z,100.00
